createdAt,value
2023-04-16T00:03:36.162Z,2.00
2023-04-16T00:08:43.734Z,2.10
2023-04-16T00:13:54.793Z,1.80
2023-04-16T00:19:01.166Z,1.97
2023-04-16T00:24:07.214Z,1.93
2023-04-16T00:29:13.332Z,1.90
2023-04-16T00:34:18.663Z,2.23
2023-04-16T00:39:22.459Z,2.20
2023-04-16T00:44:30.529Z,2.20
2023-04-16T00:49:36.114Z,2.17
2023-04-16T00:54:44.684Z,2.93
2023-04-16T00:59:50.223Z,2.27
2023-04-16T01:04:56.624Z,2.30
2023-04-16T01:10:01.796Z,2.10
2023-04-16T01:15:19.728Z,2.03
2023-04-16T01:20:23.760Z,1.80
2023-04-16T01:25:29.009Z,2.00
2023-04-16T01:30:35.664Z,2.03
2023-04-16T01:36:05.656Z,2.37
2023-04-16T01:41:10.663Z,2.20
2023-04-16T01:46:16.998Z,1.90
2023-04-16T01:51:26.286Z,2.27
2023-04-16T01:56:31.321Z,2.03
2023-04-16T02:01:34.652Z,1.90
2023-04-16T02:06:41.062Z,2.23
2023-04-16T02:11:45.892Z,2.57
2023-04-16T02:16:49.465Z,2.63
2023-04-16T02:22:16.990Z,2.63
2023-04-16T02:27:22.350Z,2.53
2023-04-16T02:32:35.457Z,4.00
2023-04-16T02:37:40.971Z,3.00
2023-04-16T02:42:46.084Z,3.63
2023-04-16T02:47:53.534Z,2.80
2023-04-16T02:52:59.343Z,3.10
2023-04-16T02:58:04.658Z,3.00
2023-04-16T03:03:13.642Z,2.60
2023-04-16T03:08:17.574Z,3.00
2023-04-16T03:13:24.877Z,2.90
2023-04-16T03:18:28.209Z,2.37
2023-04-16T03:23:42.961Z,2.50
2023-04-16T03:28:47.781Z,2.77
2023-04-16T03:33:59.483Z,3.03
2023-04-16T03:39:05.749Z,2.43
2023-04-16T03:44:11.112Z,2.73
2023-04-16T03:49:14.801Z,2.20
2023-04-16T03:54:20.171Z,2.30
2023-04-16T03:59:34.007Z,1.90
2023-04-16T04:04:37.843Z,1.90
2023-04-16T04:09:41.376Z,2.10
2023-04-16T04:14:46.449Z,2.10
2023-04-16T04:20:00.333Z,1.97
2023-04-16T04:30:51.902Z,1.87
2023-04-16T04:36:18.094Z,2.17
2023-04-16T04:41:44.795Z,2.03
2023-04-16T04:47:20.368Z,2.50
2023-04-16T04:52:53.876Z,2.47
2023-04-16T04:58:28.017Z,2.50
2023-04-16T05:03:58.209Z,2.63
2023-04-16T05:09:25.171Z,2.27
2023-04-16T05:14:51.023Z,2.43
2023-04-16T05:20:19.015Z,2.50
2023-04-16T05:25:52.806Z,2.17
2023-04-16T05:31:17.949Z,2.60
2023-04-16T05:36:50.895Z,2.43
2023-04-16T05:42:17.115Z,2.10
2023-04-16T05:47:45.084Z,2.17
2023-04-16T05:53:06.960Z,2.43
2023-04-16T05:58:29.804Z,2.47
2023-04-16T06:03:56.129Z,1.97
2023-04-16T06:09:20.873Z,2.07
2023-04-16T06:14:44.886Z,2.13
2023-04-16T06:20:18.035Z,2.40
2023-04-16T06:25:44.210Z,2.10
2023-04-16T06:31:10.015Z,2.27
2023-04-16T06:36:42.120Z,2.93
2023-04-16T06:42:20.303Z,2.50
2023-04-16T06:47:45.466Z,2.53
2023-04-16T06:53:08.996Z,2.93
2023-04-16T06:58:33.837Z,3.07
2023-04-16T07:04:09.370Z,3.00
2023-04-16T07:09:41.357Z,2.63
2023-04-16T07:15:21.074Z,2.47
2023-04-16T07:26:51.217Z,2.90
2023-04-16T07:32:16.709Z,2.60
2023-04-16T07:37:23.331Z,3.10
2023-04-16T07:42:38.321Z,2.80
2023-04-16T07:47:54.833Z,3.07
2023-04-16T07:53:23.745Z,2.53
2023-04-16T08:16:48.980Z,3.30
2023-04-16T08:28:10.002Z,3.40
2023-04-16T08:33:49.635Z,3.73
2023-04-16T08:39:18.943Z,3.83
2023-04-16T08:44:49.271Z,4.40
2023-04-16T08:50:26.336Z,4.20
2023-04-16T08:55:55.979Z,3.10
2023-04-16T09:01:25.076Z,3.27
2023-04-16T09:06:51.126Z,3.47
2023-04-16T09:12:23.547Z,2.87
2023-04-16T09:18:01.196Z,3.17
2023-04-16T09:23:33.042Z,3.30
2023-04-16T09:29:03.691Z,3.13
2023-04-16T09:34:27.054Z,2.83
2023-04-16T09:39:54.607Z,2.83
2023-04-16T09:45:23.041Z,2.83
2023-04-16T09:50:51.829Z,2.87
2023-04-16T09:56:25.764Z,2.80
2023-04-16T10:01:53.437Z,2.73
2023-04-16T10:07:42.095Z,2.90
2023-04-16T10:13:10.141Z,2.97
2023-04-16T10:18:37.114Z,3.30
2023-04-16T10:24:01.026Z,3.10
2023-04-16T10:29:28.195Z,2.93
2023-04-16T10:34:51.170Z,3.30
2023-04-16T10:40:33.017Z,3.23
2023-04-16T10:45:59.038Z,3.00
2023-04-16T10:51:33.967Z,2.87
2023-04-16T10:57:03.745Z,3.30
2023-04-16T11:02:39.221Z,3.20
2023-04-16T11:08:07.596Z,3.53
2023-04-16T11:13:35.045Z,3.07
2023-04-16T11:19:09.233Z,3.20
2023-04-16T11:24:53.783Z,3.23
2023-04-16T11:30:18.266Z,3.03
2023-04-16T11:35:48.141Z,2.73
2023-04-16T11:41:20.678Z,3.13
2023-04-16T11:46:48.208Z,3.13
2023-04-16T12:03:53.375Z,3.50
2023-04-16T12:09:51.760Z,3.13
2023-04-16T12:15:15.208Z,2.80
2023-04-16T12:20:41.319Z,3.67
2023-04-16T12:26:17.455Z,3.07
2023-04-16T12:31:52.128Z,3.47
2023-04-16T12:37:21.481Z,3.80
2023-04-16T12:42:46.166Z,2.97
2023-04-16T12:48:17.665Z,3.40
2023-04-16T12:53:43.347Z,3.50
2023-04-16T12:59:01.173Z,3.27
2023-04-16T13:04:07.840Z,3.10
2023-04-16T13:09:20.375Z,3.17
2023-04-16T13:14:42.041Z,2.87
2023-04-16T13:20:11.188Z,2.87
2023-04-16T13:26:06.220Z,3.00
2023-04-16T13:31:47.304Z,2.37
2023-04-16T13:37:36.301Z,2.50
2023-04-16T13:43:10.166Z,2.50
2023-04-16T13:48:53.599Z,2.50
2023-04-16T13:54:27.052Z,2.20
2023-04-16T13:59:55.394Z,2.10
2023-04-16T14:05:53.942Z,2.67
2023-04-16T14:11:46.630Z,2.63
2023-04-16T14:17:30.490Z,2.50
2023-04-16T14:23:47.983Z,2.30
2023-04-16T14:29:40.283Z,2.50
2023-04-16T14:35:48.405Z,2.40
2023-04-16T14:41:22.614Z,2.40
2023-04-16T14:47:14.078Z,2.77
2023-04-16T14:52:58.888Z,2.70
2023-04-16T14:58:53.282Z,3.13
2023-04-16T15:04:48.152Z,2.57
2023-04-16T15:11:00.190Z,3.00
2023-04-16T16:46:46.637Z,4.00
2023-04-16T16:52:36.365Z,3.37
2023-04-16T17:09:42.783Z,3.23
2023-04-16T17:21:12.401Z,4.33
2023-04-16T17:27:11.918Z,3.30
2023-04-16T17:32:23.716Z,2.90
2023-04-16T17:38:07.297Z,3.00
2023-04-16T17:43:28.136Z,3.10
2023-04-16T17:48:49.195Z,3.10
2023-04-16T17:54:03.826Z,3.37
2023-04-16T17:59:21.075Z,2.93
2023-04-16T18:04:46.294Z,3.07
2023-04-16T18:10:14.563Z,3.00
2023-04-16T18:15:58.390Z,2.93
2023-04-16T18:21:26.304Z,2.70
2023-04-16T18:26:55.431Z,2.43
2023-04-16T18:32:37.715Z,2.70
2023-04-16T18:38:03.327Z,2.87
2023-04-16T18:43:35.245Z,2.73
2023-04-16T18:49:04.736Z,2.67
2023-04-16T18:54:32.583Z,2.60
2023-04-16T19:00:05.850Z,2.33
2023-04-16T19:05:38.291Z,2.23
2023-04-16T19:11:08.372Z,2.40
2023-04-16T19:16:39.622Z,2.50
2023-04-16T19:22:04.480Z,2.50
2023-04-16T19:27:31.534Z,2.67
2023-04-16T19:32:58.094Z,2.90
2023-04-16T19:38:26.395Z,3.07
2023-04-16T19:43:49.540Z,2.77
2023-04-16T19:49:23.472Z,2.33
2023-04-16T19:55:01.490Z,2.63
2023-04-16T20:00:27.479Z,2.73
2023-04-16T20:06:02.035Z,2.70
2023-04-16T20:11:33.654Z,2.80
2023-04-16T20:17:23.894Z,2.87
2023-04-16T20:23:38.400Z,3.30
2023-04-16T20:29:42.981Z,3.20
2023-04-16T20:35:34.057Z,3.33
2023-04-16T20:41:36.993Z,2.43
2023-04-16T20:53:16.602Z,2.87
2023-04-16T20:59:08.963Z,2.70
2023-04-16T21:04:20.095Z,2.77
2023-04-16T21:15:36.288Z,2.67
2023-04-16T21:21:07.439Z,2.50
2023-04-16T21:26:35.675Z,2.50
2023-04-16T21:32:03.468Z,2.70
2023-04-16T21:37:33.563Z,2.40
2023-04-16T21:42:59.392Z,2.20
2023-04-16T21:48:22.473Z,2.20
2023-04-16T21:53:55.003Z,2.23
2023-04-16T22:04:56.368Z,2.30
2023-04-16T22:10:22.391Z,2.57
2023-04-16T22:15:48.464Z,2.30
2023-04-16T22:21:11.496Z,2.17
2023-04-16T22:26:36.444Z,2.50
2023-04-16T22:31:59.640Z,2.17
2023-04-16T22:37:23.456Z,2.60
2023-04-16T22:42:49.482Z,2.40
2023-04-16T22:48:13.446Z,2.40
2023-04-16T22:53:36.457Z,2.23
2023-04-16T22:59:01.486Z,2.50
2023-04-16T23:04:26.431Z,2.30
2023-04-16T23:09:50.462Z,2.30
2023-04-16T23:15:15.456Z,2.23
2023-04-16T23:20:39.709Z,2.37
2023-04-16T23:26:02.531Z,2.40
2023-04-16T23:31:27.749Z,2.13
2023-04-16T23:37:00.403Z,2.30
2023-04-16T23:42:27.291Z,2.30
2023-04-16T23:47:52.522Z,2.23
2023-04-16T23:53:16.568Z,2.23
2023-04-16T23:58:39.761Z,2.33
